sensor_id;sensor_type;location;lat;lon;timestamp;pressure;altitude;pressure_sealevel;temperature;humidity
57594;BME280;43423;46.510;6.686;2023-03-19T00:01:22;96354.22;;;10.96;58.66
57594;BME280;43423;46.510;6.686;2023-03-19T00:03:47;96352.63;;;10.89;59.44
57594;BME280;43423;46.510;6.686;2023-03-19T00:06:14;96350.28;;;11.02;57.36
57594;BME280;43423;46.510;6.686;2023-03-19T00:08:40;96361.06;;;11.06;57.59
57594;BME280;43423;46.510;6.686;2023-03-19T00:11:08;96353.38;;;11.10;58.01
57594;BME280;43423;46.510;6.686;2023-03-19T00:13:34;96362.28;;;10.99;59.23
57594;BME280;43423;46.510;6.686;2023-03-19T00:16:00;96371.28;;;11.00;60.38
57594;BME280;43423;46.510;6.686;2023-03-19T00:18:25;96367.44;;;10.92;61.27
57594;BME280;43423;46.510;6.686;2023-03-19T00:20:51;96371.28;;;10.79;62.73
57594;BME280;43423;46.510;6.686;2023-03-19T00:23:16;96374.03;;;10.79;64.90
57594;BME280;43423;46.510;6.686;2023-03-19T00:25:42;96363.44;;;10.72;65.91
57594;BME280;43423;46.510;6.686;2023-03-19T00:28:08;96368.13;;;10.86;65.44
57594;BME280;43423;46.510;6.686;2023-03-19T00:30:34;96364.75;;;10.56;66.98
57594;BME280;43423;46.510;6.686;2023-03-19T00:32:59;96367.28;;;10.40;68.65
57594;BME280;43423;46.510;6.686;2023-03-19T00:35:25;96368.88;;;10.46;67.79
57594;BME280;43423;46.510;6.686;2023-03-19T00:37:51;96369.53;;;10.41;68.65
57594;BME280;43423;46.510;6.686;2023-03-19T00:40:17;96380.94;;;10.34;68.73
57594;BME280;43423;46.510;6.686;2023-03-19T00:42:42;96366.66;;;10.30;68.71
57594;BME280;43423;46.510;6.686;2023-03-19T00:45:10;96380.56;;;10.26;69.39
57594;BME280;43423;46.510;6.686;2023-03-19T00:47:36;96373.16;;;10.32;70.61
57594;BME280;43423;46.510;6.686;2023-03-19T00:50:02;96368.66;;;10.50;69.02
57594;BME280;43423;46.510;6.686;2023-03-19T00:52:28;96373.34;;;10.44;71.04
57594;BME280;43423;46.510;6.686;2023-03-19T00:54:54;96377.31;;;10.43;70.09
57594;BME280;43423;46.510;6.686;2023-03-19T00:57:20;96382.81;;;10.43;71.44
57594;BME280;43423;46.510;6.686;2023-03-19T00:59:46;96388.81;;;10.26;71.95
57594;BME280;43423;46.510;6.686;2023-03-19T01:02:12;96389.22;;;10.04;75.88
57594;BME280;43423;46.510;6.686;2023-03-19T01:04:38;96387.25;;;10.05;74.39
57594;BME280;43423;46.510;6.686;2023-03-19T01:07:03;96393.59;;;10.11;73.54
57594;BME280;43423;46.510;6.686;2023-03-19T01:09:29;96379.28;;;10.07;76.19
57594;BME280;43423;46.510;6.686;2023-03-19T01:11:55;96369.25;;;10.04;74.67
57594;BME280;43423;46.510;6.686;2023-03-19T01:14:21;96369.81;;;9.93;76.09
57594;BME280;43423;46.510;6.686;2023-03-19T01:16:46;96365.09;;;9.79;77.43
57594;BME280;43423;46.510;6.686;2023-03-19T01:19:12;96370.41;;;9.68;77.24
57594;BME280;43423;46.510;6.686;2023-03-19T01:21:38;96374.69;;;9.69;77.97
57594;BME280;43423;46.510;6.686;2023-03-19T01:24:04;96369.38;;;9.65;78.94
57594;BME280;43423;46.510;6.686;2023-03-19T01:26:29;96368.81;;;9.76;78.24
57594;BME280;43423;46.510;6.686;2023-03-19T01:28:56;96364.34;;;9.78;77.67
57594;BME280;43423;46.510;6.686;2023-03-19T01:31:22;96360.56;;;9.76;76.91
57594;BME280;43423;46.510;6.686;2023-03-19T01:33:48;96358.75;;;9.88;76.45
57594;BME280;43423;46.510;6.686;2023-03-19T01:36:13;96358.66;;;9.82;77.23
57594;BME280;43423;46.510;6.686;2023-03-19T01:38:39;96354.91;;;9.79;77.25
57594;BME280;43423;46.510;6.686;2023-03-19T01:41:04;96352.59;;;9.78;77.34
57594;BME280;43423;46.510;6.686;2023-03-19T01:43:31;96351.84;;;9.77;76.82
57594;BME280;43423;46.510;6.686;2023-03-19T01:46:04;96349.69;;;9.82;76.95
57594;BME280;43423;46.510;6.686;2023-03-19T01:51:03;96350.53;;;9.88;75.31
57594;BME280;43423;46.510;6.686;2023-03-19T01:53:32;96358.25;;;10.04;72.73
57594;BME280;43423;46.510;6.686;2023-03-19T01:56:03;96351.31;;;10.08;71.56
57594;BME280;43423;46.510;6.686;2023-03-19T01:58:31;96352.19;;;10.00;72.56
57594;BME280;43423;46.510;6.686;2023-03-19T02:00:57;96354.06;;;10.08;71.12
57594;BME280;43423;46.510;6.686;2023-03-19T02:03:23;96341.16;;;10.15;71.74
57594;BME280;43423;46.510;6.686;2023-03-19T02:05:50;96343.72;;;10.18;71.26
57594;BME280;43423;46.510;6.686;2023-03-19T02:08:18;96348.09;;;10.25;71.96
57594;BME280;43423;46.510;6.686;2023-03-19T02:10:46;96341.16;;;10.29;70.23
57594;BME280;43423;46.510;6.686;2023-03-19T02:13:12;96346.28;;;10.22;70.22
57594;BME280;43423;46.510;6.686;2023-03-19T02:15:38;96353.66;;;10.30;71.39
57594;BME280;43423;46.510;6.686;2023-03-19T02:18:04;96359.50;;;10.38;70.39
57594;BME280;43423;46.510;6.686;2023-03-19T02:20:34;96347.75;;;10.38;69.65
57594;BME280;43423;46.510;6.686;2023-03-19T02:26:05;96352.28;;;10.41;69.37
57594;BME280;43423;46.510;6.686;2023-03-19T02:28:33;96354.19;;;10.34;70.71
57594;BME280;43423;46.510;6.686;2023-03-19T02:30:59;96351.00;;;10.36;70.76
57594;BME280;43423;46.510;6.686;2023-03-19T02:33:25;96359.03;;;10.40;71.13
57594;BME280;43423;46.510;6.686;2023-03-19T02:35:52;96366.72;;;10.36;69.60
57594;BME280;43423;46.510;6.686;2023-03-19T02:38:18;96353.00;;;10.36;69.87
57594;BME280;43423;46.510;6.686;2023-03-19T02:41:00;96350.25;;;10.36;71.20
57594;BME280;43423;46.510;6.686;2023-03-19T02:43:26;96364.16;;;10.32;70.09
57594;BME280;43423;46.510;6.686;2023-03-19T02:45:53;96356.81;;;10.23;69.92
57594;BME280;43423;46.510;6.686;2023-03-19T02:48:18;96364.19;;;10.17;70.93
57594;BME280;43423;46.510;6.686;2023-03-19T02:50:44;96368.66;;;10.15;70.81
57594;BME280;43423;46.510;6.686;2023-03-19T02:53:10;96364.09;;;10.26;69.56
57594;BME280;43423;46.510;6.686;2023-03-19T02:55:36;96362.88;;;10.27;69.40
57594;BME280;43423;46.510;6.686;2023-03-19T02:58:02;96366.75;;;10.21;68.40
57594;BME280;43423;46.510;6.686;2023-03-19T03:00:28;96360.25;;;10.39;68.18
57594;BME280;43423;46.510;6.686;2023-03-19T03:02:55;96354.38;;;10.46;67.54
57594;BME280;43423;46.510;6.686;2023-03-19T03:05:22;96360.53;;;10.41;68.02
57594;BME280;43423;46.510;6.686;2023-03-19T03:07:47;96351.75;;;10.37;67.39
57594;BME280;43423;46.510;6.686;2023-03-19T03:10:14;96354.16;;;10.29;67.86
57594;BME280;43423;46.510;6.686;2023-03-19T03:12:40;96358.59;;;10.26;67.24
57594;BME280;43423;46.510;6.686;2023-03-19T03:15:07;96357.66;;;10.15;67.72
57594;BME280;43423;46.510;6.686;2023-03-19T03:17:35;96358.41;;;10.15;68.17
57594;BME280;43423;46.510;6.686;2023-03-19T03:20:04;96357.03;;;10.05;67.53
57594;BME280;43423;46.510;6.686;2023-03-19T03:22:29;96360.44;;;10.00;68.66
57594;BME280;43423;46.510;6.686;2023-03-19T03:24:55;96358.84;;;9.93;69.13
57594;BME280;43423;46.510;6.686;2023-03-19T03:27:21;96346.56;;;9.74;68.40
57594;BME280;43423;46.510;6.686;2023-03-19T03:29:47;96355.44;;;9.84;70.27
57594;BME280;43423;46.510;6.686;2023-03-19T03:32:13;96357.72;;;9.85;71.33
57594;BME280;43423;46.510;6.686;2023-03-19T03:34:39;96372.88;;;9.81;72.21
57594;BME280;43423;46.510;6.686;2023-03-19T03:37:05;96358.78;;;9.73;72.50
57594;BME280;43423;46.510;6.686;2023-03-19T03:39:31;96363.22;;;9.70;72.72
57594;BME280;43423;46.510;6.686;2023-03-19T03:41:56;96361.16;;;9.65;73.39
57594;BME280;43423;46.510;6.686;2023-03-19T03:44:22;96368.31;;;9.63;73.84
57594;BME280;43423;46.510;6.686;2023-03-19T03:46:47;96362.38;;;9.64;73.97
57594;BME280;43423;46.510;6.686;2023-03-19T03:49:13;96369.19;;;9.54;73.86
57594;BME280;43423;46.510;6.686;2023-03-19T03:51:39;96360.94;;;9.54;74.17
57594;BME280;43423;46.510;6.686;2023-03-19T03:54:05;96358.41;;;9.50;74.68
57594;BME280;43423;46.510;6.686;2023-03-19T03:56:31;96356.03;;;9.43;74.12
57594;BME280;43423;46.510;6.686;2023-03-19T03:58:57;96360.03;;;9.42;74.35
57594;BME280;43423;46.510;6.686;2023-03-19T04:01:23;96365.31;;;9.46;74.65
57594;BME280;43423;46.510;6.686;2023-03-19T04:03:49;96366.81;;;9.47;73.80
57594;BME280;43423;46.510;6.686;2023-03-19T04:06:16;96373.81;;;9.63;72.82
57594;BME280;43423;46.510;6.686;2023-03-19T04:08:43;96374.66;;;9.84;70.57
57594;BME280;43423;46.510;6.686;2023-03-19T04:11:08;96379.13;;;9.96;70.09
57594;BME280;43423;46.510;6.686;2023-03-19T04:13:34;96378.53;;;9.92;70.82
57594;BME280;43423;46.510;6.686;2023-03-19T04:16:05;96381.13;;;9.81;72.80
57594;BME280;43423;46.510;6.686;2023-03-19T04:18:31;96378.75;;;9.73;72.98
57594;BME280;43423;46.510;6.686;2023-03-19T04:20:56;96379.31;;;9.63;72.91
57594;BME280;43423;46.510;6.686;2023-03-19T04:23:23;96388.41;;;9.69;72.91
57594;BME280;43423;46.510;6.686;2023-03-19T04:25:49;96385.94;;;9.71;72.25
57594;BME280;43423;46.510;6.686;2023-03-19T04:28:15;96382.53;;;9.61;73.05
57594;BME280;43423;46.510;6.686;2023-03-19T04:30:41;96378.28;;;9.60;72.26
57594;BME280;43423;46.510;6.686;2023-03-19T04:33:08;96375.16;;;9.52;71.38
57594;BME280;43423;46.510;6.686;2023-03-19T04:35:35;96372.69;;;9.55;73.26
57594;BME280;43423;46.510;6.686;2023-03-19T04:38:01;96372.88;;;9.51;73.14
57594;BME280;43423;46.510;6.686;2023-03-19T04:40:27;96376.50;;;9.57;73.76
57594;BME280;43423;46.510;6.686;2023-03-19T04:42:52;96379.41;;;9.54;74.42
57594;BME280;43423;46.510;6.686;2023-03-19T04:45:19;96395.50;;;9.46;74.00
57594;BME280;43423;46.510;6.686;2023-03-19T04:47:45;96391.53;;;9.32;75.07
57594;BME280;43423;46.510;6.686;2023-03-19T04:50:11;96384.13;;;9.38;76.07
57594;BME280;43423;46.510;6.686;2023-03-19T04:52:37;96384.13;;;9.38;75.62
57594;BME280;43423;46.510;6.686;2023-03-19T04:55:05;96385.38;;;9.37;75.83
57594;BME280;43423;46.510;6.686;2023-03-19T04:57:31;96382.06;;;9.48;75.16
57594;BME280;43423;46.510;6.686;2023-03-19T04:59:57;96394.47;;;9.58;76.87
57594;BME280;43423;46.510;6.686;2023-03-19T05:02:22;96398.06;;;9.64;76.04
57594;BME280;43423;46.510;6.686;2023-03-19T05:04:48;96395.88;;;9.68;76.54
57594;BME280;43423;46.510;6.686;2023-03-19T05:07:13;96394.38;;;9.52;74.66
57594;BME280;43423;46.510;6.686;2023-03-19T05:09:39;96392.66;;;9.55;75.77
57594;BME280;43423;46.510;6.686;2023-03-19T05:12:05;96392.38;;;9.53;75.42
57594;BME280;43423;46.510;6.686;2023-03-19T05:14:31;96398.06;;;9.49;73.88
57594;BME280;43423;46.510;6.686;2023-03-19T05:16:56;96399.00;;;9.46;75.32
57594;BME280;43423;46.510;6.686;2023-03-19T05:19:22;96392.84;;;9.37;76.07
57594;BME280;43423;46.510;6.686;2023-03-19T05:21:49;96399.16;;;9.28;75.37
57594;BME280;43423;46.510;6.686;2023-03-19T05:24:15;96401.16;;;9.28;75.94
57594;BME280;43423;46.510;6.686;2023-03-19T05:26:40;96396.44;;;9.28;76.20
57594;BME280;43423;46.510;6.686;2023-03-19T05:29:06;96397.19;;;9.29;74.97
57594;BME280;43423;46.510;6.686;2023-03-19T05:31:36;96398.22;;;9.31;74.91
57594;BME280;43423;46.510;6.686;2023-03-19T05:34:01;96399.75;;;9.32;74.33
57594;BME280;43423;46.510;6.686;2023-03-19T05:36:27;96404.28;;;9.35;75.09
57594;BME280;43423;46.510;6.686;2023-03-19T05:38:53;96395.22;;;9.44;75.61
57594;BME280;43423;46.510;6.686;2023-03-19T05:41:18;96392.19;;;9.57;74.11
57594;BME280;43423;46.510;6.686;2023-03-19T05:43:44;96391.81;;;9.49;73.67
57594;BME280;43423;46.510;6.686;2023-03-19T05:46:09;96395.69;;;9.42;73.85
57594;BME280;43423;46.510;6.686;2023-03-19T05:48:35;96392.00;;;9.45;73.08
57594;BME280;43423;46.510;6.686;2023-03-19T05:51:02;96393.50;;;9.46;72.88
57594;BME280;43423;46.510;6.686;2023-03-19T05:53:27;96399.09;;;9.52;71.35
57594;BME280;43423;46.510;6.686;2023-03-19T05:55:53;96397.00;;;9.47;72.62
57594;BME280;43423;46.510;6.686;2023-03-19T05:58:19;96399.19;;;9.43;72.93
57594;BME280;43423;46.510;6.686;2023-03-19T06:00:45;96398.91;;;9.41;72.48
57594;BME280;43423;46.510;6.686;2023-03-19T06:03:11;96400.59;;;9.53;71.83
57594;BME280;43423;46.510;6.686;2023-03-19T06:05:37;96412.34;;;9.68;70.93
57594;BME280;43423;46.510;6.686;2023-03-19T06:08:03;96405.91;;;9.71;70.94
57594;BME280;43423;46.510;6.686;2023-03-19T06:10:28;96408.66;;;9.71;70.51
57594;BME280;43423;46.510;6.686;2023-03-19T06:12:54;96404.69;;;9.72;70.29
57594;BME280;43423;46.510;6.686;2023-03-19T06:15:19;96406.38;;;9.70;70.71
57594;BME280;43423;46.510;6.686;2023-03-19T06:17:45;96406.75;;;9.63;70.88
57594;BME280;43423;46.510;6.686;2023-03-19T06:20:11;96407.50;;;9.63;71.58
57594;BME280;43423;46.510;6.686;2023-03-19T06:22:37;96416.22;;;9.62;72.03
57594;BME280;43423;46.510;6.686;2023-03-19T06:25:03;96409.97;;;9.61;71.81
57594;BME280;43423;46.510;6.686;2023-03-19T06:27:28;96410.84;;;9.67;70.86
57594;BME280;43423;46.510;6.686;2023-03-19T06:29:54;96418.06;;;9.79;71.00
57594;BME280;43423;46.510;6.686;2023-03-19T06:32:19;96425.81;;;9.81;70.39
57594;BME280;43423;46.510;6.686;2023-03-19T06:34:45;96423.81;;;9.82;70.49
57594;BME280;43423;46.510;6.686;2023-03-19T06:37:11;96429.47;;;9.93;69.94
57594;BME280;43423;46.510;6.686;2023-03-19T06:39:36;96425.50;;;9.94;70.56
57594;BME280;43423;46.510;6.686;2023-03-19T06:42:02;96425.13;;;10.01;70.08
57594;BME280;43423;46.510;6.686;2023-03-19T06:44:28;96428.16;;;10.03;69.60
57594;BME280;43423;46.510;6.686;2023-03-19T06:46:54;96437.53;;;10.11;70.10
57594;BME280;43423;46.510;6.686;2023-03-19T06:49:19;96436.31;;;10.12;69.54
57594;BME280;43423;46.510;6.686;2023-03-19T06:51:46;96438.66;;;10.19;69.38
57594;BME280;43423;46.510;6.686;2023-03-19T06:54:11;96444.06;;;10.28;68.93
57594;BME280;43423;46.510;6.686;2023-03-19T06:56:37;96441.59;;;10.30;68.54
57594;BME280;43423;46.510;6.686;2023-03-19T06:59:02;96437.88;;;10.33;67.79
57594;BME280;43423;46.510;6.686;2023-03-19T07:01:28;96444.59;;;10.47;69.06
57594;BME280;43423;46.510;6.686;2023-03-19T07:03:53;96451.22;;;10.55;68.08
57594;BME280;43423;46.510;6.686;2023-03-19T07:06:20;96442.41;;;10.51;67.84
57594;BME280;43423;46.510;6.686;2023-03-19T07:08:45;96448.34;;;10.65;67.01
57594;BME280;43423;46.510;6.686;2023-03-19T07:11:12;96449.50;;;10.58;67.58
57594;BME280;43423;46.510;6.686;2023-03-19T07:13:38;96454.69;;;10.71;67.25
57594;BME280;43423;46.510;6.686;2023-03-19T07:16:04;96451.94;;;10.71;67.41
57594;BME280;43423;46.510;6.686;2023-03-19T07:18:30;96458.66;;;10.70;67.29
57594;BME280;43423;46.510;6.686;2023-03-19T07:20:56;96468.34;;;10.65;67.68
57594;BME280;43423;46.510;6.686;2023-03-19T07:23:21;96469.56;;;10.64;67.84
57594;BME280;43423;46.510;6.686;2023-03-19T07:25:47;96472.72;;;10.57;68.43
57594;BME280;43423;46.510;6.686;2023-03-19T07:28:12;96474.13;;;10.67;68.73
57594;BME280;43423;46.510;6.686;2023-03-19T07:30:38;96481.16;;;10.68;68.24
57594;BME280;43423;46.510;6.686;2023-03-19T07:33:05;96482.84;;;10.66;68.70
57594;BME280;43423;46.510;6.686;2023-03-19T07:35:32;96492.09;;;10.48;68.30
57594;BME280;43423;46.510;6.686;2023-03-19T07:37:58;96483.66;;;10.51;69.03
57594;BME280;43423;46.510;6.686;2023-03-19T07:40:25;96492.28;;;10.59;68.90
57594;BME280;43423;46.510;6.686;2023-03-19T07:42:51;96496.72;;;10.56;69.33
57594;BME280;43423;46.510;6.686;2023-03-19T07:45:17;96499.34;;;10.66;69.62
57594;BME280;43423;46.510;6.686;2023-03-19T07:47:42;96509.94;;;10.73;69.32
57594;BME280;43423;46.510;6.686;2023-03-19T07:50:09;96505.59;;;10.66;68.88
57594;BME280;43423;46.510;6.686;2023-03-19T07:52:35;96502.09;;;10.66;69.19
57594;BME280;43423;46.510;6.686;2023-03-19T07:55:01;96505.72;;;10.57;69.76
57594;BME280;43423;46.510;6.686;2023-03-19T07:57:26;96510.94;;;10.55;70.47
57594;BME280;43423;46.510;6.686;2023-03-19T07:59:52;96505.94;;;10.53;70.61
57594;BME280;43423;46.510;6.686;2023-03-19T08:02:18;96511.03;;;10.60;70.38
57594;BME280;43423;46.510;6.686;2023-03-19T08:04:43;96517.56;;;10.63;71.08
57594;BME280;43423;46.510;6.686;2023-03-19T08:07:09;96513.47;;;10.58;71.86
57594;BME280;43423;46.510;6.686;2023-03-19T08:09:39;96516.72;;;10.57;72.67
57594;BME280;43423;46.510;6.686;2023-03-19T08:12:05;96518.53;;;10.45;71.23
57594;BME280;43423;46.510;6.686;2023-03-19T08:14:34;96516.06;;;10.47;72.10
57594;BME280;43423;46.510;6.686;2023-03-19T08:17:00;96517.22;;;10.41;72.51
57594;BME280;43423;46.510;6.686;2023-03-19T08:19:26;96522.53;;;10.44;70.87
57594;BME280;43423;46.510;6.686;2023-03-19T08:21:51;96523.28;;;10.30;70.43
57594;BME280;43423;46.510;6.686;2023-03-19T08:24:17;96524.69;;;10.40;72.64
57594;BME280;43423;46.510;6.686;2023-03-19T08:26:43;96538.72;;;10.42;72.80
57594;BME280;43423;46.510;6.686;2023-03-19T08:29:08;96535.50;;;10.44;73.65
57594;BME280;43423;46.510;6.686;2023-03-19T08:31:34;96537.50;;;10.43;73.01
57594;BME280;43423;46.510;6.686;2023-03-19T08:33:59;96530.66;;;10.53;72.53
57594;BME280;43423;46.510;6.686;2023-03-19T08:36:27;96531.22;;;10.13;74.75
57594;BME280;43423;46.510;6.686;2023-03-19T08:38:53;96532.34;;;10.06;74.89
57594;BME280;43423;46.510;6.686;2023-03-19T08:41:22;96531.03;;;10.17;74.30
57594;BME280;43423;46.510;6.686;2023-03-19T08:43:48;96533.28;;;10.18;74.99
57594;BME280;43423;46.510;6.686;2023-03-19T08:46:14;96539.75;;;10.15;77.01
57594;BME280;43423;46.510;6.686;2023-03-19T08:48:41;96540.13;;;10.08;75.81
57594;BME280;43423;46.510;6.686;2023-03-19T08:51:06;96539.63;;;9.95;77.34
57594;BME280;43423;46.510;6.686;2023-03-19T08:53:32;96544.31;;;10.03;77.14
57594;BME280;43423;46.510;6.686;2023-03-19T08:56:00;96548.56;;;10.19;77.16
57594;BME280;43423;46.510;6.686;2023-03-19T08:58:27;96549.44;;;10.25;77.41
57594;BME280;43423;46.510;6.686;2023-03-19T09:00:52;96561.13;;;10.35;77.07
57594;BME280;43423;46.510;6.686;2023-03-19T09:03:19;96557.19;;;10.42;76.72
57594;BME280;43423;46.510;6.686;2023-03-19T09:05:46;96555.53;;;10.29;79.36
57594;BME280;43423;46.510;6.686;2023-03-19T09:08:12;96559.25;;;10.17;77.51
57594;BME280;43423;46.510;6.686;2023-03-19T09:10:38;96549.25;;;10.29;78.83
57594;BME280;43423;46.510;6.686;2023-03-19T09:13:04;96551.81;;;10.32;79.73
57594;BME280;43423;46.510;6.686;2023-03-19T09:15:30;96558.75;;;10.28;81.03
57594;BME280;43423;46.510;6.686;2023-03-19T09:17:56;96554.84;;;10.34;80.97
57594;BME280;43423;46.510;6.686;2023-03-19T09:20:21;96551.06;;;10.32;81.38
57594;BME280;43423;46.510;6.686;2023-03-19T09:22:47;96552.19;;;10.40;80.27
57594;BME280;43423;46.510;6.686;2023-03-19T09:25:12;96540.91;;;10.38;81.58
57594;BME280;43423;46.510;6.686;2023-03-19T09:27:38;96546.91;;;10.37;81.00
57594;BME280;43423;46.510;6.686;2023-03-19T09:30:04;96542.91;;;10.38;81.65
57594;BME280;43423;46.510;6.686;2023-03-19T09:32:30;96544.53;;;10.44;81.92
57594;BME280;43423;46.510;6.686;2023-03-19T09:34:55;96543.00;;;10.43;80.17
57594;BME280;43423;46.510;6.686;2023-03-19T09:37:21;96535.97;;;10.57;77.99
57594;BME280;43423;46.510;6.686;2023-03-19T09:39:47;96531.69;;;10.56;78.88
57594;BME280;43423;46.510;6.686;2023-03-19T09:42:39;96539.94;;;10.56;79.01
57594;BME280;43423;46.510;6.686;2023-03-19T09:45:14;96532.94;;;10.55;78.28
57594;BME280;43423;46.510;6.686;2023-03-19T09:47:41;96535.03;;;10.60;78.68
57594;BME280;43423;46.510;6.686;2023-03-19T09:50:23;96526.94;;;10.56;78.06
57594;BME280;43423;46.510;6.686;2023-03-19T09:53:02;96532.19;;;10.54;77.28
57594;BME280;43423;46.510;6.686;2023-03-19T09:55:42;96540.78;;;10.62;77.68
57594;BME280;43423;46.510;6.686;2023-03-19T09:58:14;96538.22;;;10.73;76.31
57594;BME280;43423;46.510;6.686;2023-03-19T10:00:41;96543.53;;;10.77;76.77
57594;BME280;43423;46.510;6.686;2023-03-19T10:09:13;96539.38;;;10.67;77.38
57594;BME280;43423;46.510;6.686;2023-03-19T10:17:06;96542.75;;;10.91;76.19
57594;BME280;43423;46.510;6.686;2023-03-19T10:19:47;96530.97;;;10.90;75.30
57594;BME280;43423;46.510;6.686;2023-03-19T10:22:20;96542.31;;;10.63;76.16
57594;BME280;43423;46.510;6.686;2023-03-19T10:24:49;96550.63;;;10.83;77.79
57594;BME280;43423;46.510;6.686;2023-03-19T10:27:19;96544.72;;;10.90;76.55
57594;BME280;43423;46.510;6.686;2023-03-19T10:29:45;96548.63;;;10.84;76.48
57594;BME280;43423;46.510;6.686;2023-03-19T10:32:37;96540.91;;;10.53;76.30
57594;BME280;43423;46.510;6.686;2023-03-19T10:35:11;96545.63;;;10.67;76.47
57594;BME280;43423;46.510;6.686;2023-03-19T10:37:41;96544.94;;;10.72;77.77
57594;BME280;43423;46.510;6.686;2023-03-19T10:40:16;96546.19;;;10.71;78.05
57594;BME280;43423;46.510;6.686;2023-03-19T10:43:11;96546.78;;;10.46;76.22
57594;BME280;43423;46.510;6.686;2023-03-19T10:45:37;96558.91;;;10.54;77.72
57594;BME280;43423;46.510;6.686;2023-03-19T10:48:04;96550.28;;;10.46;77.93
57594;BME280;43423;46.510;6.686;2023-03-19T10:50:52;96562.31;;;10.49;76.33
57594;BME280;43423;46.510;6.686;2023-03-19T10:53:32;96561.09;;;10.50;77.99
57594;BME280;43423;46.510;6.686;2023-03-19T10:56:02;96555.53;;;10.44;76.01
57594;BME280;43423;46.510;6.686;2023-03-19T10:58:31;96548.41;;;10.38;77.58
57594;BME280;43423;46.510;6.686;2023-03-19T11:01:08;96549.66;;;10.37;76.80
57594;BME280;43423;46.510;6.686;2023-03-19T11:03:50;96548.13;;;10.36;76.79
57594;BME280;43423;46.510;6.686;2023-03-19T11:06:49;96554.66;;;10.53;76.70
57594;BME280;43423;46.510;6.686;2023-03-19T11:09:32;96554.53;;;10.62;77.00
57594;BME280;43423;46.510;6.686;2023-03-19T11:12:25;96560.16;;;10.53;76.25
57594;BME280;43423;46.510;6.686;2023-03-19T11:14:55;96549.44;;;10.55;78.01
57594;BME280;43423;46.510;6.686;2023-03-19T11:17:25;96555.31;;;10.48;76.55
57594;BME280;43423;46.510;6.686;2023-03-19T11:19:56;96556.44;;;10.41;75.79
57594;BME280;43423;46.510;6.686;2023-03-19T11:22:31;96559.56;;;10.49;75.07
57594;BME280;43423;46.510;6.686;2023-03-19T11:30:35;96552.94;;;10.41;76.04
57594;BME280;43423;46.510;6.686;2023-03-19T11:36:12;96565.00;;;10.28;77.30
57594;BME280;43423;46.510;6.686;2023-03-19T11:45:10;96553.75;;;10.17;78.01
57594;BME280;43423;46.510;6.686;2023-03-19T11:50:18;96560.34;;;10.34;77.66
57594;BME280;43423;46.510;6.686;2023-03-19T11:58:43;96553.63;;;10.36;78.03
57594;BME280;43423;46.510;6.686;2023-03-19T12:07:20;96546.03;;;10.45;76.84
57594;BME280;43423;46.510;6.686;2023-03-19T12:13:36;96545.44;;;10.56;75.95
57594;BME280;43423;46.510;6.686;2023-03-19T12:16:23;96544.22;;;10.57;74.25
57594;BME280;43423;46.510;6.686;2023-03-19T12:24:03;96543.91;;;10.70;73.06
57594;BME280;43423;46.510;6.686;2023-03-19T12:26:36;96546.66;;;10.70;73.23
57594;BME280;43423;46.510;6.686;2023-03-19T12:29:20;96539.72;;;10.74;71.47
57594;BME280;43423;46.510;6.686;2023-03-19T12:32:03;96540.19;;;10.73;70.58
57594;BME280;43423;46.510;6.686;2023-03-19T12:34:51;96541.66;;;10.68;70.56
57594;BME280;43423;46.510;6.686;2023-03-19T12:37:27;96536.34;;;10.50;71.42
57594;BME280;43423;46.510;6.686;2023-03-19T12:40:06;96528.41;;;10.52;71.17
57594;BME280;43423;46.510;6.686;2023-03-19T12:42:38;96543.16;;;10.69;72.77
57594;BME280;43423;46.510;6.686;2023-03-19T12:45:15;96538.25;;;10.44;71.54
57594;BME280;43423;46.510;6.686;2023-03-19T12:47:44;96539.72;;;10.74;72.88
57594;BME280;43423;46.510;6.686;2023-03-19T12:50:13;96534.28;;;10.59;71.03
57594;BME280;43423;46.510;6.686;2023-03-19T12:52:49;96525.38;;;10.85;71.53
57594;BME280;43423;46.510;6.686;2023-03-19T12:55:21;96526.63;;;11.39;70.53
57594;BME280;43423;46.510;6.686;2023-03-19T12:57:50;96521.84;;;11.81;70.42
57594;BME280;43423;46.510;6.686;2023-03-19T13:00:27;96523.56;;;11.78;68.08
57594;BME280;43423;46.510;6.686;2023-03-19T13:05:44;96518.69;;;12.45;68.41
57594;BME280;43423;46.510;6.686;2023-03-19T13:11:01;96514.06;;;13.00;67.11
57594;BME280;43423;46.510;6.686;2023-03-19T13:13:41;96510.53;;;12.62;65.22
57594;BME280;43423;46.510;6.686;2023-03-19T13:16:42;96522.44;;;12.42;67.86
57594;BME280;43423;46.510;6.686;2023-03-19T13:21:39;96505.22;;;11.95;67.71
57594;BME280;43423;46.510;6.686;2023-03-19T13:24:25;96505.00;;;11.99;67.44
57594;BME280;43423;46.510;6.686;2023-03-19T13:26:53;96506.78;;;11.56;67.31
57594;BME280;43423;46.510;6.686;2023-03-19T13:29:31;96499.34;;;11.62;66.23
57594;BME280;43423;46.510;6.686;2023-03-19T13:32:06;96502.75;;;11.77;67.47
57594;BME280;43423;46.510;6.686;2023-03-19T13:34:34;96502.97;;;11.94;66.39
57594;BME280;43423;46.510;6.686;2023-03-19T13:39:35;96503.34;;;12.39;65.20
57594;BME280;43423;46.510;6.686;2023-03-19T13:46:56;96502.25;;;12.56;64.13
57594;BME280;43423;46.510;6.686;2023-03-19T13:49:30;96498.56;;;12.34;61.85
57594;BME280;43423;46.510;6.686;2023-03-19T13:54:38;96493.38;;;11.89;65.00
57594;BME280;43423;46.510;6.686;2023-03-19T13:59:40;96489.22;;;11.53;70.09
57594;BME280;43423;46.510;6.686;2023-03-19T14:04:57;96482.84;;;11.67;70.80
57594;BME280;43423;46.510;6.686;2023-03-19T14:07:27;96486.56;;;11.38;70.31
57594;BME280;43423;46.510;6.686;2023-03-19T14:15:14;96483.31;;;12.12;65.61
57594;BME280;43423;46.510;6.686;2023-03-19T14:29:05;96472.38;;;12.18;61.05
57594;BME280;43423;46.510;6.686;2023-03-19T14:31:35;96467.81;;;12.15;62.61
57594;BME280;43423;46.510;6.686;2023-03-19T14:34:34;96469.88;;;12.20;62.48
57594;BME280;43423;46.510;6.686;2023-03-19T14:37:28;96471.44;;;12.00;61.32
57594;BME280;43423;46.510;6.686;2023-03-19T14:40:42;96470.09;;;11.90;62.55
57594;BME280;43423;46.510;6.686;2023-03-19T14:43:06;96464.22;;;12.03;62.07
57594;BME280;43423;46.510;6.686;2023-03-19T14:45:48;96471.41;;;11.49;69.88